Russell, Kansas
Current Conditions -  °F | °C
As of 1:53 PM on Thursday 30 Oct 2014 (Local Time) from KRSL Reporting Station
Clear Clear  
Wind Chill: 68°   Ceiling: Unl
Heat Index: 68°   Visibility: 10mi
Dew Point: 35°   Wind: 16mph
Humidity: 30%   Direction: 330°NNW
Pressure: 30.18"   Gusts: 26mph
Location:  38.9°N, 98.86°W
Report Text: KRSL 301853Z AUTO 33014G23KT 10SM CLR 20/02 A3018 RMK AO2 SLP218 T02000017
Loading
Personal Weather Stations






























Interactive Weather Map
Tropical Storm Tracking
New forecast layout! Learn more

10-Day Weather Forecast

Advertisements
Track Severe Weather on mobile